Time;durP1;ratioP1;P1;durP2;ratioP2;P2;SDS_P1;SDS_P2;PMS_P1;PMS_P2;Temp;Humidity;BMP_temperature;BMP_pressure;BME280_temperature;BME280_humidity;BME280_pressure;Samples;Min_cycle;Max_cycle;Signal;HPM_P1;HPM_P2
2021/07/29 00:01:12;;;;;;;2.30;1.27;;;;;;;20.86;84.43;100538.75;5093554;28;20492;-74
2021/07/29 00:03:40;;;;;;;1.73;1.27;;;;;;;20.82;85.10;100535.94;5093780;28;20455;-76
2021/07/29 00:06:06;;;;;;;2.60;1.47;;;;;;;20.86;84.89;100536.78;5093844;28;20449;-76
2021/07/29 00:08:33;;;;;;;1.73;1.63;;;;;;;20.89;85.19;100535.22;5093549;28;20482;-77
2021/07/29 00:10:59;;;;;;;2.07;1.40;;;;;;;20.91;84.93;100541.19;5093571;28;20457;-76
2021/07/29 00:13:26;;;;;;;2.03;1.30;;;;;;;20.94;86.54;100537.69;5093330;28;20437;-76
2021/07/29 00:15:52;;;;;;;1.93;1.30;;;;;;;20.91;86.31;100543.94;5093544;28;20447;-76
2021/07/29 00:21:04;;;;;;;2.90;1.90;;;;;;;20.89;85.65;100541.56;5093457;28;21030;-75
2021/07/29 00:23:30;;;;;;;2.63;2.03;;;;;;;20.87;86.77;100541.13;5093477;28;20444;-76
2021/07/29 00:25:57;;;;;;;1.83;1.20;;;;;;;20.85;85.77;100532.44;5093443;28;20498;-75
2021/07/29 00:28:23;;;;;;;2.23;1.57;;;;;;;20.81;85.80;100531.59;5093154;28;20450;-76
2021/07/29 00:30:49;;;;;;;3.23;1.67;;;;;;;20.80;85.32;100535.50;5093349;28;20452;-76
2021/07/29 00:33:16;;;;;;;2.07;1.47;;;;;;;20.81;85.81;100534.34;5093457;28;20444;-75
2021/07/29 00:35:42;;;;;;;2.80;1.77;;;;;;;20.76;85.53;100533.88;5093202;28;20842;-76
2021/07/29 00:38:10;;;;;;;1.83;1.10;;;;;;;20.77;85.46;100532.72;5093308;28;20467;-76
2021/07/29 00:40:37;;;;;;;2.53;1.83;;;;;;;20.77;86.16;100532.72;5092680;28;21024;-77
2021/07/29 00:43:03;;;;;;;2.47;1.40;;;;;;;20.73;85.65;100534.63;5093284;28;20432;-75
2021/07/29 00:45:30;;;;;;;1.37;1.13;;;;;;;20.72;85.52;100528.31;5092948;28;20428;-77
2021/07/29 00:47:56;;;;;;;2.20;1.53;;;;;;;20.68;85.68;100530.22;5093241;28;20848;-76
2021/07/29 00:50:24;;;;;;;1.17;1.00;;;;;;;20.68;85.85;100530.22;5093111;28;20448;-77
2021/07/29 00:52:50;;;;;;;2.30;1.83;;;;;;;20.72;86.07;100525.56;5092779;28;20945;-76
2021/07/29 00:55:20;;;;;;;3.43;1.80;;;;;;;20.68;85.85;100523.94;5092780;28;20429;-76
2021/07/29 00:57:47;;;;;;;2.47;1.70;;;;;;;20.62;86.10;100526.19;5093089;28;20432;-75
2021/07/29 01:00:14;;;;;;;1.63;1.40;;;;;;;20.57;86.53;100523.75;5093358;28;20444;-73
2021/07/29 01:02:41;;;;;;;3.70;1.50;;;;;;;20.56;87.46;100519.44;5092745;28;20439;-75
2021/07/29 01:05:09;;;;;;;2.77;2.03;;;;;;;20.51;87.31;100523.28;5093089;28;20440;-76
2021/07/29 01:07:35;;;;;;;2.80;1.97;;;;;;;20.40;86.91;100514.81;5093132;28;20432;-76
2021/07/29 01:10:02;;;;;;;1.90;1.70;;;;;;;20.37;87.13;100512.84;5093139;28;20486;-76
2021/07/29 01:12:30;;;;;;;2.40;1.70;;;;;;;20.37;87.57;100514.78;5093006;28;20475;-74
2021/07/29 01:14:56;;;;;;;1.93;1.60;;;;;;;20.31;88.45;100511.53;5093056;28;20447;-76
2021/07/29 01:17:23;;;;;;;2.10;1.87;;;;;;;20.26;88.38;100514.59;5093060;28;20429;-76
2021/07/29 01:19:49;;;;;;;2.90;1.93;;;;;;;20.23;88.35;100509.84;5092579;28;20810;-75
2021/07/29 01:22:17;;;;;;;3.70;1.80;;;;;;;20.13;89.05;100510.47;5092488;28;20996;-75
2021/07/29 01:24:44;;;;;;;1.97;1.27;;;;;;;20.13;88.51;100513.22;5092848;28;20456;-76
2021/07/29 01:27:10;;;;;;;4.30;2.17;;;;;;;20.11;88.63;100512.78;5092824;28;20795;-76
2021/07/29 01:29:36;;;;;;;4.83;1.40;;;;;;;20.08;89.77;100502.53;5094510;28;20444;-73
2021/07/29 01:32:04;;;;;;;2.37;1.63;;;;;;;20.03;90.21;100500.09;5096443;28;20471;-72
2021/07/29 01:34:30;;;;;;;3.07;1.80;;;;;;;19.94;90.70;100496.78;5096489;28;20444;-74
2021/07/29 01:36:57;;;;;;;2.37;1.90;;;;;;;19.89;90.63;100500.63;5096452;28;20452;-72
2021/07/29 01:39:24;;;;;;;2.17;1.20;;;;;;;19.83;90.66;100497.41;5096371;28;20444;-72
2021/07/29 01:41:53;;;;;;;2.47;1.50;;;;;;;19.71;91.67;100489.31;5113578;22;20484;-82
2021/07/29 01:44:20;;;;;;;3.70;1.80;;;;;;;19.62;91.91;100480.53;5089699;28;20453;-81
2021/07/29 01:46:46;;;;;;;2.90;2.10;;;;;;;19.55;92.15;100488.59;5082838;28;20449;-80
2021/07/29 01:49:19;;;;;;;2.50;1.57;;;;;;;19.55;92.55;100489.38;5118030;22;20885;-68
2021/07/29 01:51:45;;;;;;;1.90;1.57;;;;;;;19.48;92.80;100500.25;5116354;28;20551;-65
2021/07/29 01:54:12;;;;;;;3.80;2.00;;;;;;;19.45;92.73;100489.97;5116227;28;20881;-69
2021/07/29 01:56:41;;;;;;;3.90;2.13;;;;;;;19.39;93.34;100497.72;5116421;28;20440;-69
2021/07/29 01:59:07;;;;;;;2.83;1.73;;;;;;;19.33;93.71;100507.41;5116406;28;20442;-68
2021/07/29 02:01:33;;;;;;;2.47;2.07;;;;;;;19.28;93.85;100504.94;5116268;28;20498;-68
2021/07/29 02:04:00;;;;;;;1.67;1.40;;;;;;;19.26;94.27;100499.03;5116220;28;20435;-68
2021/07/29 02:06:26;;;;;;;2.67;1.70;;;;;;;19.19;94.67;100507.13;5115961;28;20469;-68
2021/07/29 02:08:53;;;;;;;3.30;1.50;;;;;;;19.15;94.99;100507.03;5116305;28;20509;-67
2021/07/29 02:11:19;;;;;;;1.70;1.60;;;;;;;19.04;95.27;100503.28;5116278;28;20463;-67
2021/07/29 02:13:47;;;;;;;4.33;1.40;;;;;;;19.00;95.65;100507.91;5116177;28;20443;-68
2021/07/29 02:16:16;;;;;;;2.43;1.40;;;;;;;19.02;95.20;100504.81;5115785;28;20454;-68
2021/07/29 02:18:42;;;;;;;2.07;1.50;;;;;;;18.99;96.00;100506.34;5116009;28;20444;-68
2021/07/29 02:21:10;;;;;;;1.50;1.13;;;;;;;18.98;95.89;100501.19;5115596;28;20885;-67
2021/07/29 02:23:36;;;;;;;1.63;0.90;;;;;;;18.93;96.13;100490.50;5115754;28;20944;-67
2021/07/29 02:26:03;;;;;;;3.30;1.90;;;;;;;18.94;96.02;100501.09;5115866;28;20447;-67
2021/07/29 02:28:29;;;;;;;3.67;2.13;;;;;;;18.93;96.24;100495.97;5115837;28;20447;-67
2021/07/29 02:30:57;;;;;;;2.47;1.60;;;;;;;18.88;95.86;100486.88;5115811;28;20435;-68
2021/07/29 02:33:23;;;;;;;2.70;1.60;;;;;;;18.88;96.32;100497.84;5115786;28;20485;-67
2021/07/29 02:35:50;;;;;;;2.43;1.30;;;;;;;18.90;96.76;100501.03;5115742;28;20469;-68
2021/07/29 02:38:17;;;;;;;2.47;1.90;;;;;;;18.88;96.25;100506.09;5115383;28;20845;-68
2021/07/29 02:40:44;;;;;;;2.03;1.80;;;;;;;18.87;96.39;100501.75;5114782;28;20440;-68
2021/07/29 02:43:11;;;;;;;4.70;1.67;;;;;;;18.85;96.56;100509.53;5115548;28;20530;-67
2021/07/29 02:45:37;;;;;;;3.20;1.60;;;;;;;18.82;96.99;100502.03;5115590;28;20446;-69
2021/07/29 02:48:05;;;;;;;2.30;1.53;;;;;;;18.80;97.28;100506.28;5115044;28;20971;-69
2021/07/29 02:50:31;;;;;;;2.30;1.53;;;;;;;18.79;96.61;100502.75;5115517;28;20469;-68
2021/07/29 02:52:58;;;;;;;3.03;1.87;;;;;;;18.77;97.02;100505.06;5115289;28;20463;-68
2021/07/29 02:55:24;;;;;;;1.50;1.23;;;;;;;18.74;96.93;100505.78;5115134;28;20936;-68
2021/07/29 02:57:51;;;;;;;2.40;1.23;;;;;;;18.70;97.50;100499.41;5115234;28;20446;-68
2021/07/29 03:00:17;;;;;;;2.00;1.00;;;;;;;18.66;97.25;100496.56;5115273;28;20444;-68
2021/07/29 03:02:44;;;;;;;4.27;1.87;;;;;;;18.65;96.89;100502.41;5114931;28;20532;-69
2021/07/29 03:05:12;;;;;;;2.50;1.90;;;;;;;18.64;97.43;100503.56;5115156;28;20451;-69
2021/07/29 03:07:38;;;;;;;1.70;1.03;;;;;;;18.60;97.39;100502.69;5115175;28;20439;-68
2021/07/29 03:10:05;;;;;;;2.00;1.30;;;;;;;18.59;97.42;100495.59;5115166;28;20462;-68
2021/07/29 03:12:32;;;;;;;2.30;1.60;;;;;;;18.58;97.42;100500.28;5114988;28;20477;-68
2021/07/29 03:14:58;;;;;;;1.27;1.00;;;;;;;18.57;97.86;100498.69;5114911;28;20447;-69
2021/07/29 03:17:24;;;;;;;1.40;1.23;;;;;;;18.51;97.41;100499.34;5114905;28;20439;-68
2021/07/29 03:19:51;;;;;;;2.43;1.33;;;;;;;18.49;97.92;100505.16;5114587;28;20932;-69
2021/07/29 03:22:19;;;;;;;1.90;1.10;;;;;;;18.48;98.21;100508.28;5114719;28;20491;-68
2021/07/29 03:24:45;;;;;;;2.40;1.67;;;;;;;18.47;98.24;100499.25;5114417;28;20439;-68
2021/07/29 03:27:11;;;;;;;3.23;1.67;;;;;;;18.49;98.08;100501.63;5114792;28;20497;-68
2021/07/29 03:29:38;;;;;;;4.00;1.30;;;;;;;18.50;97.78;100503.22;5114774;28;20432;-69
2021/07/29 03:32:05;;;;;;;2.50;1.67;;;;;;;18.42;98.44;100513.25;5114622;28;20458;-68
2021/07/29 03:34:31;;;;;;;2.77;1.90;;;;;;;18.41;98.32;100509.69;5114597;28;20787;-69
2021/07/29 03:36:58;;;;;;;3.00;1.33;;;;;;;18.37;97.88;100516.25;5114563;28;20435;-69
2021/07/29 03:39:26;;;;;;;1.93;1.10;;;;;;;18.34;98.78;100517.75;5114463;28;20447;-68
2021/07/29 03:41:52;;;;;;;4.03;1.50;;;;;;;18.38;98.05;100515.09;5114035;28;20483;-68
2021/07/29 03:44:18;;;;;;;1.63;1.30;;;;;;;18.40;97.67;100516.34;5114402;28;20440;-68
2021/07/29 03:46:45;;;;;;;1.60;1.33;;;;;;;18.36;97.35;100520.13;5114405;28;20431;-69
2021/07/29 03:49:11;;;;;;;2.67;1.50;;;;;;;18.34;96.20;100517.75;5113951;28;20451;-69
2021/07/29 03:51:38;;;;;;;2.80;1.40;;;;;;;18.34;95.60;100523.25;5114310;28;20455;-69
2021/07/29 03:54:04;;;;;;;2.00;1.40;;;;;;;18.33;96.18;100510.69;5113304;28;20454;-68
2021/07/29 03:56:32;;;;;;;3.67;1.63;;;;;;;18.39;96.97;100516.69;5113962;28;20820;-68
2021/07/29 03:58:58;;;;;;;1.93;1.27;;;;;;;18.42;97.45;100518.75;5113975;28;20797;-69
2021/07/29 04:01:25;;;;;;;2.70;1.93;;;;;;;18.45;97.81;100519.97;5113987;28;20486;-68
2021/07/29 04:03:51;;;;;;;1.80;1.03;;;;;;;18.47;97.67;100512.97;5113683;28;20435;-68
2021/07/29 04:06:18;;;;;;;1.30;1.20;;;;;;;18.45;98.24;100523.50;5114001;28;20451;-68
2021/07/29 04:08:44;;;;;;;3.50;1.60;;;;;;;18.51;97.68;100521.28;5114011;28;20443;-69
2021/07/29 04:11:10;;;;;;;2.03;1.27;;;;;;;18.50;97.73;100527.91;5113612;28;20439;-65
2021/07/29 04:13:38;;;;;;;2.43;1.60;;;;;;;18.54;97.05;100531.53;5113933;28;20439;-65
2021/07/29 04:16:05;;;;;;;2.73;1.70;;;;;;;18.59;97.03;100531.25;5113697;28;20931;-65
2021/07/29 04:18:32;;;;;;;2.80;1.67;;;;;;;18.60;96.44;100519.94;5113848;28;20443;-69
2021/07/29 04:20:59;;;;;;;2.37;1.47;;;;;;;18.58;96.02;100533.22;5113869;28;20445;-72
2021/07/29 04:23:26;;;;;;;1.87;1.20;;;;;;;18.61;95.92;100537.19;5113863;28;20891;-66
2021/07/29 04:25:53;;;;;;;3.03;1.43;;;;;;;18.61;96.25;100537.19;5113879;28;20497;-66
2021/07/29 04:28:19;;;;;;;1.53;1.10;;;;;;;18.61;95.57;100542.69;5113511;28;20440;-65
2021/07/29 04:30:47;;;;;;;1.83;1.27;;;;;;;18.60;94.95;100541.09;5113755;28;20440;-65
2021/07/29 04:33:13;;;;;;;1.77;1.30;;;;;;;18.61;94.56;100546.22;5113779;28;20459;-66
2021/07/29 04:35:40;;;;;;;1.77;1.30;;;;;;;18.61;94.54;100553.66;5113360;28;20971;-66
2021/07/29 04:38:06;;;;;;;4.70;1.63;;;;;;;18.58;94.05;100552.41;5113709;28;20440;-68
2021/07/29 04:40:33;;;;;;;1.83;1.10;;;;;;;18.56;94.67;100556.69;5113770;28;20431;-66
2021/07/29 04:42:59;;;;;;;3.00;1.63;;;;;;;18.54;94.30;100553.47;5113508;28;20850;-65
2021/07/29 04:45:26;;;;;;;1.40;1.30;;;;;;;18.56;94.43;100553.94;5113578;28;20435;-65
2021/07/29 04:47:53;;;;;;;1.70;1.43;;;;;;;18.58;93.94;100559.84;5113414;28;20450;-65
2021/07/29 04:50:20;;;;;;;2.23;1.13;;;;;;;18.53;94.82;100551.91;5113571;28;20420;-65
2021/07/29 04:52:49;;;;;;;5.93;1.40;;;;;;;18.53;94.10;100551.91;5113449;28;20456;-65
2021/07/29 04:55:16;;;;;;;1.43;0.90;;;;;;;18.55;94.40;100557.81;5113497;28;20864;-65
2021/07/29 04:57:42;;;;;;;1.77;1.47;;;;;;;18.56;93.81;100553.94;5113088;28;20482;-65
2021/07/29 05:00:10;;;;;;;1.67;1.37;;;;;;;18.59;93.65;100554.03;5113066;28;20436;-67
2021/07/29 05:02:36;;;;;;;1.80;1.37;;;;;;;18.58;94.26;100546.94;5112965;28;20487;-66
2021/07/29 05:05:04;;;;;;;2.20;1.10;;;;;;;18.64;93.49;100552.97;5115612;28;20443;-66
2021/07/29 05:07:31;;;;;;;2.00;1.20;;;;;;;18.72;93.47;100548.44;5117390;28;20450;-65
2021/07/29 05:09:57;;;;;;;1.67;1.10;;;;;;;18.77;92.68;100559.13;5117402;28;20527;-66
2021/07/29 05:12:24;;;;;;;2.07;1.60;;;;;;;18.75;92.85;100554.00;5117400;28;20462;-65
2021/07/29 05:14:56;;;;;;;2.83;1.57;;;;;;;18.85;92.70;100556.19;5117340;28;20443;-66
2021/07/29 05:17:23;;;;;;;1.63;1.33;;;;;;;18.92;91.90;100549.28;5116972;28;20958;-66
2021/07/29 05:19:49;;;;;;;4.37;1.50;;;;;;;18.95;92.73;100556.78;5117151;28;20492;-66
2021/07/29 05:22:17;;;;;;;3.40;1.70;;;;;;;19.02;91.45;100551.47;5116697;28;20483;-65
2021/07/29 05:24:44;;;;;;;0.87;0.80;;;;;;;19.07;90.62;100549.22;5117040;28;20857;-64
2021/07/29 05:27:10;;;;;;;2.23;1.63;;;;;;;19.11;90.55;100555.59;5117005;28;20436;-66
2021/07/29 05:29:36;;;;;;;2.30;1.07;;;;;;;19.10;90.89;100539.50;5116992;28;20514;-67
2021/07/29 05:32:03;;;;;;;2.67;1.60;;;;;;;19.19;90.61;100544.78;5116895;28;20480;-68
2021/07/29 05:34:32;;;;;;;1.37;1.03;;;;;;;19.25;89.65;100535.88;5116899;28;20444;-67
2021/07/29 05:36:58;;;;;;;1.53;1.20;;;;;;;19.26;89.40;100543.00;5116944;28;20450;-67
2021/07/29 05:39:26;;;;;;;2.57;1.73;;;;;;;19.32;87.90;100538.78;5116910;28;20443;-65
2021/07/29 05:41:52;;;;;;;2.23;1.40;;;;;;;19.39;88.01;100530.69;5116662;28;20510;-67
2021/07/29 05:44:19;;;;;;;2.37;1.00;;;;;;;19.43;87.48;100541.72;5116851;28;20474;-66
2021/07/29 05:46:45;;;;;;;2.40;1.63;;;;;;;19.48;87.64;100540.66;5116377;28;20939;-66
2021/07/29 05:49:12;;;;;;;1.77;1.30;;;;;;;19.53;87.40;100532.94;5116335;28;20453;-66
2021/07/29 05:51:38;;;;;;;1.20;1.10;;;;;;;19.57;87.20;100544.78;5116521;28;20455;-66
2021/07/29 05:54:04;;;;;;;3.10;1.33;;;;;;;19.63;86.44;100542.56;5116577;28;20447;-65
2021/07/29 05:56:32;;;;;;;1.60;1.40;;;;;;;19.64;86.52;100542.19;5116506;28;20439;-65
2021/07/29 05:58:58;;;;;;;2.10;1.53;;;;;;;19.72;84.77;100545.09;5116453;28;20442;-65
2021/07/29 06:01:25;;;;;;;3.50;1.13;;;;;;;19.74;86.38;100532.56;5116400;28;20464;-65
2021/07/29 06:03:51;;;;;;;1.73;1.27;;;;;;;19.72;84.97;100532.13;5116356;28;20482;-66
2021/07/29 06:06:18;;;;;;;3.13;1.67;;;;;;;19.82;84.41;100528.78;5116310;28;20815;-65
2021/07/29 06:08:44;;;;;;;3.50;1.70;;;;;;;19.93;83.86;100525.44;5116211;28;20443;-65
2021/07/29 06:11:10;;;;;;;1.93;1.53;;;;;;;19.99;84.46;100524.75;5116187;28;20447;-66
2021/07/29 06:13:38;;;;;;;1.43;1.17;;;;;;;20.00;81.48;100517.31;5116027;28;20442;-66
2021/07/29 06:16:09;;;;;;;2.30;1.43;;;;;;;20.06;82.32;100515.84;5115087;28;20454;-66
2021/07/29 06:18:41;;;;;;;2.53;1.50;;;;;;;20.12;82.14;100522.63;5116053;28;20435;-69
2021/07/29 06:21:08;;;;;;;1.83;1.63;;;;;;;20.19;82.56;100522.75;5115931;28;20909;-66
2021/07/29 06:23:34;;;;;;;1.43;1.33;;;;;;;20.26;81.81;100527.56;5115858;28;20479;-67
2021/07/29 06:26:01;;;;;;;2.10;1.30;;;;;;;20.32;81.29;100526.91;5115673;28;20847;-67
2021/07/29 06:28:32;;;;;;;2.00;1.20;;;;;;;20.38;80.61;100533.69;5115919;28;20458;-69
2021/07/29 06:30:59;;;;;;;1.60;1.43;;;;;;;20.47;81.97;100529.88;5115880;28;20463;-69
2021/07/29 06:33:26;;;;;;;2.77;1.70;;;;;;;20.50;81.27;100531.94;5115859;28;20435;-70
2021/07/29 06:35:52;;;;;;;1.47;1.30;;;;;;;20.54;81.00;100533.56;5115811;28;20447;-68
2021/07/29 06:38:19;;;;;;;2.10;1.13;;;;;;;20.64;80.25;100540.41;5115654;28;20442;-68
2021/07/29 06:40:45;;;;;;;1.80;1.00;;;;;;;20.73;79.38;100537.38;5115626;28;20512;-67
2021/07/29 06:43:11;;;;;;;1.93;0.93;;;;;;;20.79;77.08;100538.63;5115370;28;20483;-67
2021/07/29 06:45:38;;;;;;;1.40;0.80;;;;;;;20.83;75.93;100537.53;5115195;28;20940;-67
2021/07/29 06:48:06;;;;;;;2.10;1.20;;;;;;;20.91;74.49;100541.97;5115347;28;20458;-66
2021/07/29 06:50:33;;;;;;;1.83;1.20;;;;;;;20.95;75.35;100533.75;5115395;28;20439;-67
2021/07/29 06:52:59;;;;;;;0.93;0.83;;;;;;;20.99;73.46;100533.81;5115302;28;20463;-66
2021/07/29 06:55:25;;;;;;;1.73;1.17;;;;;;;21.04;73.27;100536.25;5115150;28;20451;-66
2021/07/29 06:57:52;;;;;;;4.43;1.63;;;;;;;21.08;75.33;100526.06;5115107;28;20440;-66
2021/07/29 07:00:20;;;;;;;1.10;0.90;;;;;;;21.14;72.88;100535.56;5115226;28;20470;-66
2021/07/29 07:02:46;;;;;;;0.97;0.87;;;;;;;21.13;73.28;100526.53;5115050;28;20570;-66
2021/07/29 07:05:14;;;;;;;2.43;1.67;;;;;;;21.18;71.74;100525.41;5115135;28;20454;-65
2021/07/29 07:07:40;;;;;;;3.30;1.30;;;;;;;21.23;72.84;100525.06;5115102;28;20867;-66
2021/07/29 07:10:07;;;;;;;1.63;1.03;;;;;;;21.28;73.55;100521.97;5115041;28;20440;-66
2021/07/29 07:12:35;;;;;;;3.70;1.37;;;;;;;21.36;72.54;100529.19;5114931;28;20452;-66
2021/07/29 07:15:02;;;;;;;1.47;1.37;;;;;;;21.39;72.28;100519.38;5115181;28;20467;-66
2021/07/29 07:17:28;;;;;;;2.90;1.30;;;;;;;21.42;72.75;100524.91;5114889;28;20431;-66
2021/07/29 07:19:58;;;;;;;1.30;1.10;;;;;;;21.48;73.35;100528.16;5114586;28;20944;-67
2021/07/29 07:22:26;;;;;;;1.80;1.23;;;;;;;21.54;72.12;100528.59;5114599;28;20460;-68
2021/07/29 07:24:53;;;;;;;3.37;1.60;;;;;;;21.58;72.50;100534.94;5114744;28;20851;-67
2021/07/29 07:27:19;;;;;;;1.77;1.40;;;;;;;21.66;72.33;100533.88;5114451;28;20435;-66
2021/07/29 07:29:46;;;;;;;1.60;1.40;;;;;;;21.66;70.25;100529.16;5114257;28;20459;-66
2021/07/29 07:32:13;;;;;;;1.60;1.20;;;;;;;21.74;69.87;100524.50;5114264;28;20976;-70
2021/07/29 07:34:39;;;;;;;7.67;1.83;;;;;;;21.78;69.88;100528.09;5114521;28;20496;-68
2021/07/29 07:37:05;;;;;;;2.80;1.23;;;;;;;21.84;70.07;100526.56;5114543;28;20435;-67
2021/07/29 07:39:35;;;;;;;1.27;0.70;;;;;;;21.91;69.86;100525.81;5114480;28;20462;-68
2021/07/29 07:42:01;;;;;;;1.43;1.13;;;;;;;22.01;69.77;100529.88;5127062;22;20965;-71
2021/07/29 07:44:28;;;;;;;2.27;1.13;;;;;;;22.06;68.34;100519.28;5073414;28;20977;-72
2021/07/29 07:46:55;;;;;;;2.40;1.10;;;;;;;22.12;68.00;100525.28;5073600;28;20452;-75
2021/07/29 07:49:21;;;;;;;2.57;1.23;;;;;;;22.21;68.85;100517.47;5073797;28;20441;-71
2021/07/29 07:51:47;;;;;;;1.17;1.07;;;;;;;22.37;67.49;100517.19;5090847;28;20480;-70
2021/07/29 07:54:14;;;;;;;2.17;1.47;;;;;;;22.51;66.23;100525.59;5093917;28;20432;-73
2021/07/29 07:56:45;;;;;;;1.10;0.93;;;;;;;22.47;65.02;100532.25;5093867;28;20448;-69
2021/07/29 07:59:11;;;;;;;1.43;0.90;;;;;;;22.45;64.22;100534.63;5093833;28;20448;-67
2021/07/29 08:01:39;;;;;;;1.57;0.90;;;;;;;22.38;65.89;100538.88;5093765;28;20464;-73
2021/07/29 08:04:06;;;;;;;2.40;1.23;;;;;;;22.18;65.66;100529.28;5093745;28;20484;-71
2021/07/29 08:06:32;;;;;;;1.00;0.90;;;;;;;22.13;64.73;100526.84;5093644;28;20476;-70
2021/07/29 08:09:01;;;;;;;2.20;1.40;;;;;;;22.13;64.57;100521.34;5093780;28;20440;-70
2021/07/29 08:11:27;;;;;;;1.40;1.00;;;;;;;22.23;65.63;100522.63;5093639;28;20443;-74
2021/07/29 08:13:55;;;;;;;1.50;1.20;;;;;;;22.31;65.88;100518.72;5094243;28;20432;-69
2021/07/29 08:16:21;;;;;;;2.00;1.33;;;;;;;22.41;64.53;100523.53;5093457;28;20949;-71
2021/07/29 08:18:49;;;;;;;1.77;1.07;;;;;;;22.48;65.24;100533.84;5093302;28;20449;-71
2021/07/29 08:21:16;;;;;;;2.27;1.30;;;;;;;22.50;64.04;100537.03;5083909;28;20493;-75
2021/07/29 08:23:43;;;;;;;1.53;1.20;;;;;;;22.43;66.45;100518.41;5072996;28;20496;-71
2021/07/29 08:26:11;;;;;;;2.63;1.43;;;;;;;22.35;65.28;100519.53;5072953;28;20440;-69
2021/07/29 08:28:40;;;;;;;2.80;1.97;;;;;;;22.21;61.95;100516.66;5073058;28;20453;-69
2021/07/29 08:31:09;;;;;;;1.47;0.80;;;;;;;22.40;64.14;100510.91;5073141;28;20539;-70
2021/07/29 08:33:36;;;;;;;1.50;1.20;;;;;;;22.55;61.87;100511.81;5073106;28;20489;-69
2021/07/29 08:36:03;;;;;;;2.23;1.13;;;;;;;22.58;60.25;100505.53;5073076;28;20452;-70
2021/07/29 08:38:29;;;;;;;1.70;1.10;;;;;;;22.68;62.06;100510.31;5073078;28;20524;-69
2021/07/29 08:40:56;;;;;;;3.30;1.67;;;;;;;22.76;62.40;100513.91;5077200;28;20453;-69
2021/07/29 08:43:23;;;;;;;1.97;1.27;;;;;;;22.90;63.33;100505.75;5076730;28;20500;-70
2021/07/29 08:45:52;;;;;;;2.00;1.20;;;;;;;23.00;61.97;100516.03;5077021;28;20436;-70
2021/07/29 08:48:26;;;;;;;2.63;1.20;;;;;;;23.00;60.01;100504.19;5076974;28;20433;-70
2021/07/29 08:50:52;;;;;;;1.20;0.97;;;;;;;23.04;60.32;100514.09;5077162;28;20453;-70
2021/07/29 08:53:19;;;;;;;2.50;1.33;;;;;;;23.15;60.51;100505.84;5076960;28;20453;-73
2021/07/29 08:55:48;;;;;;;2.67;1.57;;;;;;;23.30;60.74;100510.25;5076759;28;20442;-73
2021/07/29 08:58:14;;;;;;;2.30;1.70;;;;;;;23.42;61.25;100504.38;5076988;28;20442;-72
2021/07/29 09:00:57;;;;;;;6.40;1.70;;;;;;;23.40;60.49;100511.47;5076922;28;20448;-72
2021/07/29 09:03:27;;;;;;;1.33;1.23;;;;;;;23.03;60.26;100517.25;5076625;28;20492;-70
2021/07/29 09:06:05;;;;;;;1.67;0.90;;;;;;;22.86;61.07;100511.22;5077078;28;20457;-72
2021/07/29 09:08:43;;;;;;;1.67;1.20;;;;;;;22.69;62.16;100511.91;5076901;28;20455;-71
2021/07/29 09:11:25;;;;;;;1.87;1.40;;;;;;;22.50;63.62;100512.16;5076770;28;20426;-72
2021/07/29 09:14:02;;;;;;;1.57;1.20;;;;;;;22.45;64.00;100512.53;5076387;28;20468;-71
2021/07/29 09:16:29;;;;;;;2.40;1.10;;;;;;;22.42;65.45;100514.09;5076659;28;20429;-71
2021/07/29 09:18:56;;;;;;;2.10;1.40;;;;;;;22.48;64.29;100528.31;5077052;28;20522;-72
2021/07/29 09:21:23;;;;;;;1.50;1.40;;;;;;;22.62;64.84;100525.66;5077331;28;20967;-72
2021/07/29 09:24:03;;;;;;;1.73;1.17;;;;;;;22.82;63.93;100520.66;5079456;28;20492;-71
2021/07/29 09:26:53;;;;;;;2.50;1.67;;;;;;;22.84;62.08;100519.09;5076556;28;20432;-71
2021/07/29 09:29:21;;;;;;;2.47;1.57;;;;;;;22.68;62.24;100521.38;5076400;28;20444;-72
2021/07/29 09:31:48;;;;;;;1.77;1.23;;;;;;;22.68;62.23;100521.38;5076762;28;20465;-72
2021/07/29 09:34:16;;;;;;;1.30;1.10;;;;;;;22.79;63.21;100521.41;5078890;28;20438;-72
2021/07/29 09:36:42;;;;;;;1.10;1.00;;;;;;;22.86;63.36;100516.72;5077001;28;20445;-73
2021/07/29 09:39:23;;;;;;;1.80;1.33;;;;;;;22.92;64.22;100517.97;5075906;28;20441;-71
2021/07/29 09:41:54;;;;;;;1.00;0.90;;;;;;;22.93;63.11;100516.00;5075877;28;20469;-72
2021/07/29 09:44:39;;;;;;;1.60;1.27;;;;;;;23.04;63.56;100516.06;5076103;28;20465;-73
2021/07/29 09:47:06;;;;;;;1.47;1.00;;;;;;;23.11;62.73;100510.59;5076249;28;20421;-72
2021/07/29 09:49:35;;;;;;;2.80;1.53;;;;;;;23.21;62.57;100520.88;5076100;28;20448;-71
2021/07/29 09:52:03;;;;;;;2.40;1.40;;;;;;;23.21;62.07;100520.09;5075571;28;20978;-72
2021/07/29 09:54:29;;;;;;;1.13;0.90;;;;;;;23.14;59.78;100521.63;5075884;28;20440;-73
2021/07/29 09:56:56;;;;;;;1.77;1.50;;;;;;;23.24;61.66;100522.88;5075864;28;20441;-72
2021/07/29 09:59:23;;;;;;;1.80;1.27;;;;;;;23.34;60.80;100524.09;5075801;28;20459;-73
2021/07/29 10:01:52;;;;;;;3.67;1.10;;;;;;;23.41;62.15;100524.09;5076021;28;20480;-74
2021/07/29 10:04:24;;;;;;;1.73;1.07;;;;;;;23.38;57.94;100522.91;5075643;28;20476;-74
2021/07/29 10:06:55;;;;;;;2.50;1.07;;;;;;;23.35;59.30;100514.59;5075682;28;20421;-70
2021/07/29 10:09:23;;;;;;;1.83;1.33;;;;;;;23.22;57.39;100516.13;5075348;28;20440;-71
2021/07/29 10:11:52;;;;;;;2.10;1.10;;;;;;;23.17;58.00;100520.06;5091072;28;20553;-70
2021/07/29 10:14:45;;;;;;;1.80;1.20;;;;;;;23.05;57.36;100523.97;5095432;28;20811;-69
2021/07/29 10:17:12;;;;;;;2.07;1.30;;;;;;;23.17;55.40;100503.50;5095481;28;20920;-69
2021/07/29 10:20:20;;;;;;;1.67;0.93;;;;;;;23.35;54.58;100512.63;5095679;28;20458;-70
2021/07/29 10:22:47;;;;;;;1.13;1.03;;;;;;;23.36;55.87;100508.69;5095558;28;20488;-70
2021/07/29 10:25:14;;;;;;;1.57;1.10;;;;;;;23.49;54.99;100508.31;5095525;28;20488;-69
2021/07/29 10:27:41;;;;;;;1.37;1.13;;;;;;;23.48;51.58;100518.59;5095561;28;20849;-69
2021/07/29 10:30:30;;;;;;;0.80;0.80;;;;;;;23.52;51.87;100515.84;5095528;28;20811;-69
2021/07/29 10:32:57;;;;;;;1.90;0.90;;;;;;;23.64;51.50;100510.78;5095140;28;20460;-70
2021/07/29 10:35:39;;;;;;;1.90;1.10;;;;;;;23.84;51.72;100516.72;5095416;28;20539;-71
2021/07/29 10:38:05;;;;;;;1.87;0.97;;;;;;;23.98;52.42;100506.88;5095648;28;20543;-68
2021/07/29 10:40:33;;;;;;;3.37;1.60;;;;;;;23.92;52.36;100509.25;5095404;28;20448;-72
2021/07/29 10:43:33;;;;;;;8.20;1.20;;;;;;;23.94;52.75;100511.59;5094919;28;20525;-72
2021/07/29 10:46:01;;;;;;;1.40;1.27;;;;;;;23.75;52.95;100510.78;5095194;28;20440;-72
2021/07/29 10:49:13;;;;;;;1.70;1.10;;;;;;;23.58;53.24;100512.31;5095310;28;20525;-73
2021/07/29 10:52:09;;;;;;;0.93;0.80;;;;;;;23.39;52.94;100516.19;5095215;28;20467;-73
2021/07/29 10:54:36;;;;;;;1.30;1.03;;;;;;;23.35;51.10;100520.13;5095190;28;20456;-73
2021/07/29 10:57:03;;;;;;;0.77;0.60;;;;;;;23.51;50.88;100512.31;5095163;28;20472;-73
2021/07/29 10:59:30;;;;;;;1.67;1.27;;;;;;;23.72;50.95;100514.34;5095032;28;20436;-73
2021/07/29 11:01:57;;;;;;;1.50;1.30;;;;;;;23.84;51.57;100499.34;5094365;28;20460;-74
2021/07/29 11:04:28;;;;;;;1.73;1.10;;;;;;;23.92;51.13;100498.97;5094799;28;20587;-74
2021/07/29 11:06:59;;;;;;;1.03;0.90;;;;;;;24.19;50.43;100501.34;5094901;28;20433;-72
2021/07/29 11:09:30;;;;;;;1.80;1.00;;;;;;;24.29;50.37;100511.59;5095893;28;20429;-73
2021/07/29 11:11:58;;;;;;;1.90;1.47;;;;;;;24.25;52.24;100502.50;5095041;28;20457;-74
2021/07/29 11:14:26;;;;;;;1.33;1.10;;;;;;;24.30;51.41;100498.56;5094662;28;20818;-74
2021/07/29 11:16:53;;;;;;;1.00;0.90;;;;;;;24.32;51.10;100505.28;5094650;28;20450;-73
2021/07/29 11:19:19;;;;;;;0.77;0.67;;;;;;;24.37;51.10;100507.69;5094577;28;20498;-73
2021/07/29 11:22:01;;;;;;;1.10;1.00;;;;;;;24.27;50.82;100502.13;5094195;28;20973;-74
2021/07/29 11:24:27;;;;;;;1.43;1.13;;;;;;;24.17;51.88;100487.91;5094512;28;20472;-72
2021/07/29 11:26:55;;;;;;;2.07;1.17;;;;;;;24.34;49.19;100497.34;5094196;28;20793;-74
2021/07/29 11:29:22;;;;;;;1.20;0.83;;;;;;;24.45;49.29;100491.84;5094486;28;20803;-73
2021/07/29 11:31:52;;;;;;;2.27;1.37;;;;;;;24.44;49.04;100493.06;5094362;28;20465;-73